sensor_id;sensor_type;location;lat;lon;timestamp;temperature;humidity
1578;DHT22;57623;53.608;10.004;2023-06-10T00:00:01;15.30;99.90
1578;DHT22;57623;53.608;10.004;2023-06-10T00:02:32;15.30;99.90
1578;DHT22;57623;53.608;10.004;2023-06-10T00:05:00;15.30;99.90
1578;DHT22;57623;53.608;10.004;2023-06-10T00:07:28;15.20;99.90
1578;DHT22;57623;53.608;10.004;2023-06-10T00:09:56;15.10;99.90
1578;DHT22;57623;53.608;10.004;2023-06-10T00:12:24;15.10;99.90
1578;DHT22;57623;53.608;10.004;2023-06-10T00:14:53;15.10;99.90
1578;DHT22;57623;53.608;10.004;2023-06-10T00:17:21;15.10;99.90
1578;DHT22;57623;53.608;10.004;2023-06-10T00:19:50;15.10;99.90
1578;DHT22;57623;53.608;10.004;2023-06-10T00:22:18;15.00;99.90
1578;DHT22;57623;53.608;10.004;2023-06-10T00:24:46;15.00;99.90
1578;DHT22;57623;53.608;10.004;2023-06-10T00:27:14;14.90;99.90
1578;DHT22;57623;53.608;10.004;2023-06-10T00:29:42;14.90;99.90
1578;DHT22;57623;53.608;10.004;2023-06-10T00:32:11;14.80;99.90
1578;DHT22;57623;53.608;10.004;2023-06-10T00:34:39;14.80;99.90
1578;DHT22;57623;53.608;10.004;2023-06-10T00:37:07;14.80;99.90
1578;DHT22;57623;53.608;10.004;2023-06-10T00:39:35;14.80;99.90
1578;DHT22;57623;53.608;10.004;2023-06-10T00:42:04;14.70;99.90
1578;DHT22;57623;53.608;10.004;2023-06-10T00:44:33;14.70;99.90
1578;DHT22;57623;53.608;10.004;2023-06-10T00:47:04;14.60;99.90
1578;DHT22;57623;53.608;10.004;2023-06-10T00:49:34;14.60;99.90
1578;DHT22;57623;53.608;10.004;2023-06-10T00:52:04;14.60;99.90
1578;DHT22;57623;53.608;10.004;2023-06-10T00:54:33;14.60;99.90
1578;DHT22;57623;53.608;10.004;2023-06-10T00:57:01;14.50;99.90
1578;DHT22;57623;53.608;10.004;2023-06-10T00:59:30;14.50;99.90
1578;DHT22;57623;53.608;10.004;2023-06-10T01:01:59;14.50;99.90
1578;DHT22;57623;53.608;10.004;2023-06-10T01:04:27;14.40;99.90
1578;DHT22;57623;53.608;10.004;2023-06-10T01:07:05;14.40;99.90
1578;DHT22;57623;53.608;10.004;2023-06-10T01:09:40;14.40;99.90
1578;DHT22;57623;53.608;10.004;2023-06-10T01:12:14;14.30;99.90
1578;DHT22;57623;53.608;10.004;2023-06-10T01:14:45;14.30;99.90
1578;DHT22;57623;53.608;10.004;2023-06-10T01:17:13;14.30;99.90
1578;DHT22;57623;53.608;10.004;2023-06-10T01:19:43;14.20;99.90
1578;DHT22;57623;53.608;10.004;2023-06-10T01:22:13;14.20;99.90
1578;DHT22;57623;53.608;10.004;2023-06-10T01:24:42;14.20;99.90
1578;DHT22;57623;53.608;10.004;2023-06-10T01:27:14;14.10;99.90
1578;DHT22;57623;53.608;10.004;2023-06-10T01:29:46;14.20;99.90
1578;DHT22;57623;53.608;10.004;2023-06-10T01:32:23;14.10;99.90
1578;DHT22;57623;53.608;10.004;2023-06-10T01:34:55;14.10;99.90
1578;DHT22;57623;53.608;10.004;2023-06-10T01:37:26;14.00;99.90
1578;DHT22;57623;53.608;10.004;2023-06-10T01:39:57;14.00;99.90
1578;DHT22;57623;53.608;10.004;2023-06-10T01:42:26;14.00;99.90
1578;DHT22;57623;53.608;10.004;2023-06-10T01:44:54;14.00;99.90
1578;DHT22;57623;53.608;10.004;2023-06-10T01:47:23;13.90;99.90
1578;DHT22;57623;53.608;10.004;2023-06-10T01:49:51;13.90;99.90
1578;DHT22;57623;53.608;10.004;2023-06-10T01:52:18;13.90;99.90
1578;DHT22;57623;53.608;10.004;2023-06-10T01:54:48;13.90;99.90
1578;DHT22;57623;53.608;10.004;2023-06-10T01:57:16;13.90;99.90
1578;DHT22;57623;53.608;10.004;2023-06-10T01:59:44;13.80;99.90
1578;DHT22;57623;53.608;10.004;2023-06-10T02:02:12;13.80;99.90
1578;DHT22;57623;53.608;10.004;2023-06-10T02:04:40;13.80;99.90
1578;DHT22;57623;53.608;10.004;2023-06-10T02:07:08;13.80;99.90
1578;DHT22;57623;53.608;10.004;2023-06-10T02:09:38;13.80;99.90
1578;DHT22;57623;53.608;10.004;2023-06-10T02:12:09;13.70;99.90
1578;DHT22;57623;53.608;10.004;2023-06-10T02:14:37;13.70;99.90
1578;DHT22;57623;53.608;10.004;2023-06-10T02:17:05;13.70;99.90
1578;DHT22;57623;53.608;10.004;2023-06-10T02:19:33;13.70;99.90
1578;DHT22;57623;53.608;10.004;2023-06-10T02:22:03;13.60;99.90
1578;DHT22;57623;53.608;10.004;2023-06-10T02:24:31;13.60;99.90
1578;DHT22;57623;53.608;10.004;2023-06-10T02:26:59;13.60;99.90
1578;DHT22;57623;53.608;10.004;2023-06-10T02:29:30;13.60;99.90
1578;DHT22;57623;53.608;10.004;2023-06-10T02:31:58;13.60;99.90
1578;DHT22;57623;53.608;10.004;2023-06-10T02:34:27;13.60;99.90
1578;DHT22;57623;53.608;10.004;2023-06-10T02:36:55;13.60;99.90
1578;DHT22;57623;53.608;10.004;2023-06-10T02:39:23;13.60;99.90
1578;DHT22;57623;53.608;10.004;2023-06-10T02:41:51;13.60;99.90
1578;DHT22;57623;53.608;10.004;2023-06-10T02:44:19;13.60;99.90
1578;DHT22;57623;53.608;10.004;2023-06-10T02:46:48;13.50;99.90
1578;DHT22;57623;53.608;10.004;2023-06-10T02:49:17;13.50;99.90
1578;DHT22;57623;53.608;10.004;2023-06-10T02:51:45;13.50;99.90
1578;DHT22;57623;53.608;10.004;2023-06-10T02:54:13;13.40;99.90
1578;DHT22;57623;53.608;10.004;2023-06-10T02:56:41;13.40;99.90
1578;DHT22;57623;53.608;10.004;2023-06-10T02:59:09;13.40;99.90
1578;DHT22;57623;53.608;10.004;2023-06-10T03:01:37;13.40;99.90
1578;DHT22;57623;53.608;10.004;2023-06-10T03:04:07;13.40;99.90
1578;DHT22;57623;53.608;10.004;2023-06-10T03:06:35;13.40;99.90
1578;DHT22;57623;53.608;10.004;2023-06-10T03:09:05;13.40;99.90
1578;DHT22;57623;53.608;10.004;2023-06-10T03:11:34;13.30;99.90
1578;DHT22;57623;53.608;10.004;2023-06-10T03:14:02;13.30;99.90
1578;DHT22;57623;53.608;10.004;2023-06-10T03:16:30;13.30;99.90
1578;DHT22;57623;53.608;10.004;2023-06-10T03:18:58;13.30;99.90
1578;DHT22;57623;53.608;10.004;2023-06-10T03:21:27;13.30;99.90
1578;DHT22;57623;53.608;10.004;2023-06-10T03:23:55;13.30;99.90
1578;DHT22;57623;53.608;10.004;2023-06-10T03:26:23;13.30;99.90
1578;DHT22;57623;53.608;10.004;2023-06-10T03:28:52;13.30;99.90
1578;DHT22;57623;53.608;10.004;2023-06-10T03:31:20;13.30;99.90
1578;DHT22;57623;53.608;10.004;2023-06-10T03:33:48;13.30;99.90
1578;DHT22;57623;53.608;10.004;2023-06-10T03:36:16;13.20;99.90
1578;DHT22;57623;53.608;10.004;2023-06-10T03:38:46;13.20;99.90
1578;DHT22;57623;53.608;10.004;2023-06-10T03:41:14;13.30;99.90
1578;DHT22;57623;53.608;10.004;2023-06-10T03:43:42;13.20;99.90
1578;DHT22;57623;53.608;10.004;2023-06-10T03:46:11;13.20;99.90
1578;DHT22;57623;53.608;10.004;2023-06-10T03:48:39;13.20;99.90
1578;DHT22;57623;53.608;10.004;2023-06-10T03:51:07;13.30;99.90
1578;DHT22;57623;53.608;10.004;2023-06-10T03:53:35;13.30;99.90
1578;DHT22;57623;53.608;10.004;2023-06-10T03:56:04;13.30;99.90
1578;DHT22;57623;53.608;10.004;2023-06-10T03:58:32;13.30;99.90
1578;DHT22;57623;53.608;10.004;2023-06-10T04:01:00;13.30;99.90
1578;DHT22;57623;53.608;10.004;2023-06-10T04:03:29;13.30;99.90
1578;DHT22;57623;53.608;10.004;2023-06-10T04:05:57;13.30;99.90
1578;DHT22;57623;53.608;10.004;2023-06-10T04:08:25;13.30;99.90
1578;DHT22;57623;53.608;10.004;2023-06-10T04:10:53;13.40;99.90
1578;DHT22;57623;53.608;10.004;2023-06-10T04:13:23;13.40;99.90
1578;DHT22;57623;53.608;10.004;2023-06-10T04:15:51;13.40;99.90
1578;DHT22;57623;53.608;10.004;2023-06-10T04:18:19;13.50;99.90
1578;DHT22;57623;53.608;10.004;2023-06-10T04:20:47;13.50;99.90
1578;DHT22;57623;53.608;10.004;2023-06-10T04:23:15;13.60;99.90
1578;DHT22;57623;53.608;10.004;2023-06-10T04:25:43;13.60;99.90
1578;DHT22;57623;53.608;10.004;2023-06-10T04:28:11;13.60;99.90
1578;DHT22;57623;53.608;10.004;2023-06-10T04:30:40;13.70;99.90
1578;DHT22;57623;53.608;10.004;2023-06-10T04:33:08;13.70;99.90
1578;DHT22;57623;53.608;10.004;2023-06-10T04:35:36;13.80;99.90
1578;DHT22;57623;53.608;10.004;2023-06-10T04:38:04;13.80;99.90
1578;DHT22;57623;53.608;10.004;2023-06-10T04:40:32;13.90;99.90
1578;DHT22;57623;53.608;10.004;2023-06-10T04:43:00;13.90;99.90
1578;DHT22;57623;53.608;10.004;2023-06-10T04:45:28;13.90;99.90
1578;DHT22;57623;53.608;10.004;2023-06-10T04:47:59;14.00;99.90
1578;DHT22;57623;53.608;10.004;2023-06-10T04:50:27;14.00;99.90
1578;DHT22;57623;53.608;10.004;2023-06-10T04:52:57;14.00;99.90
1578;DHT22;57623;53.608;10.004;2023-06-10T04:55:25;14.10;99.90
1578;DHT22;57623;53.608;10.004;2023-06-10T04:57:53;14.20;99.90
1578;DHT22;57623;53.608;10.004;2023-06-10T05:00:21;14.30;99.90
1578;DHT22;57623;53.608;10.004;2023-06-10T05:02:49;14.30;99.90
1578;DHT22;57623;53.608;10.004;2023-06-10T05:05:20;14.40;99.90
1578;DHT22;57623;53.608;10.004;2023-06-10T05:07:48;14.50;99.90
1578;DHT22;57623;53.608;10.004;2023-06-10T05:10:16;14.50;99.90
1578;DHT22;57623;53.608;10.004;2023-06-10T05:12:44;14.60;99.90
1578;DHT22;57623;53.608;10.004;2023-06-10T05:15:12;14.60;99.90
1578;DHT22;57623;53.608;10.004;2023-06-10T05:17:40;14.70;99.90
1578;DHT22;57623;53.608;10.004;2023-06-10T05:20:09;14.70;99.90
1578;DHT22;57623;53.608;10.004;2023-06-10T05:22:39;14.80;99.90
1578;DHT22;57623;53.608;10.004;2023-06-10T05:25:07;14.90;99.90
1578;DHT22;57623;53.608;10.004;2023-06-10T05:27:36;14.90;99.90
1578;DHT22;57623;53.608;10.004;2023-06-10T05:30:05;15.00;99.90
1578;DHT22;57623;53.608;10.004;2023-06-10T05:32:34;15.10;99.90
1578;DHT22;57623;53.608;10.004;2023-06-10T05:35:02;15.10;99.90
1578;DHT22;57623;53.608;10.004;2023-06-10T05:37:33;15.10;99.90
1578;DHT22;57623;53.608;10.004;2023-06-10T05:40:02;15.10;99.90
1578;DHT22;57623;53.608;10.004;2023-06-10T05:42:31;15.10;99.90
1578;DHT22;57623;53.608;10.004;2023-06-10T05:44:59;15.20;99.90
1578;DHT22;57623;53.608;10.004;2023-06-10T05:47:28;15.30;99.90
1578;DHT22;57623;53.608;10.004;2023-06-10T05:49:56;15.30;99.90
1578;DHT22;57623;53.608;10.004;2023-06-10T05:52:24;15.30;99.90
1578;DHT22;57623;53.608;10.004;2023-06-10T05:54:52;15.30;99.90
1578;DHT22;57623;53.608;10.004;2023-06-10T05:57:22;15.40;99.90
1578;DHT22;57623;53.608;10.004;2023-06-10T05:59:50;15.50;99.90
1578;DHT22;57623;53.608;10.004;2023-06-10T06:02:18;15.60;99.90
1578;DHT22;57623;53.608;10.004;2023-06-10T06:04:46;15.70;99.90
1578;DHT22;57623;53.608;10.004;2023-06-10T06:07:14;15.70;99.90
1578;DHT22;57623;53.608;10.004;2023-06-10T06:09:42;15.80;99.90
1578;DHT22;57623;53.608;10.004;2023-06-10T06:12:10;15.90;99.90
1578;DHT22;57623;53.608;10.004;2023-06-10T06:14:40;15.90;99.90
1578;DHT22;57623;53.608;10.004;2023-06-10T06:17:08;15.90;99.90
1578;DHT22;57623;53.608;10.004;2023-06-10T06:19:36;15.90;99.90
1578;DHT22;57623;53.608;10.004;2023-06-10T06:22:04;16.00;99.90
1578;DHT22;57623;53.608;10.004;2023-06-10T06:24:32;16.00;99.90
1578;DHT22;57623;53.608;10.004;2023-06-10T06:27:00;16.10;99.90
1578;DHT22;57623;53.608;10.004;2023-06-10T06:29:28;16.20;99.90
1578;DHT22;57623;53.608;10.004;2023-06-10T06:31:59;16.20;99.90
1578;DHT22;57623;53.608;10.004;2023-06-10T06:34:27;16.30;99.90
1578;DHT22;57623;53.608;10.004;2023-06-10T06:36:55;16.40;99.90
1578;DHT22;57623;53.608;10.004;2023-06-10T06:39:23;16.40;99.90
1578;DHT22;57623;53.608;10.004;2023-06-10T06:41:51;16.50;99.90
1578;DHT22;57623;53.608;10.004;2023-06-10T06:44:19;16.50;99.90
1578;DHT22;57623;53.608;10.004;2023-06-10T06:46:47;16.60;99.90
1578;DHT22;57623;53.608;10.004;2023-06-10T06:49:16;16.60;99.90
1578;DHT22;57623;53.608;10.004;2023-06-10T06:51:44;16.70;99.90
1578;DHT22;57623;53.608;10.004;2023-06-10T06:54:12;16.80;99.90
1578;DHT22;57623;53.608;10.004;2023-06-10T06:56:40;16.90;99.90
1578;DHT22;57623;53.608;10.004;2023-06-10T06:59:08;16.90;99.90
1578;DHT22;57623;53.608;10.004;2023-06-10T07:01:36;17.00;99.90
1578;DHT22;57623;53.608;10.004;2023-06-10T07:04:04;17.10;99.90
1578;DHT22;57623;53.608;10.004;2023-06-10T07:06:34;17.20;99.90
1578;DHT22;57623;53.608;10.004;2023-06-10T07:09:04;17.20;99.90
1578;DHT22;57623;53.608;10.004;2023-06-10T07:11:33;17.30;99.90
1578;DHT22;57623;53.608;10.004;2023-06-10T07:14:01;17.40;99.90
1578;DHT22;57623;53.608;10.004;2023-06-10T07:16:29;17.50;99.90
1578;DHT22;57623;53.608;10.004;2023-06-10T07:18:57;17.50;99.90
1578;DHT22;57623;53.608;10.004;2023-06-10T07:21:25;17.60;99.90
1578;DHT22;57623;53.608;10.004;2023-06-10T07:23:56;17.70;99.90
1578;DHT22;57623;53.608;10.004;2023-06-10T07:26:24;17.80;99.90
1578;DHT22;57623;53.608;10.004;2023-06-10T07:28:53;17.90;99.90
1578;DHT22;57623;53.608;10.004;2023-06-10T07:31:23;18.00;99.90
1578;DHT22;57623;53.608;10.004;2023-06-10T07:33:51;18.00;99.90
1578;DHT22;57623;53.608;10.004;2023-06-10T07:36:19;18.10;99.90
1578;DHT22;57623;53.608;10.004;2023-06-10T07:38:47;18.10;99.90
1578;DHT22;57623;53.608;10.004;2023-06-10T07:41:17;18.30;99.90
1578;DHT22;57623;53.608;10.004;2023-06-10T07:43:46;18.30;99.90
1578;DHT22;57623;53.608;10.004;2023-06-10T07:46:14;18.40;99.90
1578;DHT22;57623;53.608;10.004;2023-06-10T07:48:42;18.50;99.90
1578;DHT22;57623;53.608;10.004;2023-06-10T07:51:10;18.60;99.90
1578;DHT22;57623;53.608;10.004;2023-06-10T07:53:38;18.70;99.90
1578;DHT22;57623;53.608;10.004;2023-06-10T07:56:06;18.70;99.90
1578;DHT22;57623;53.608;10.004;2023-06-10T07:58:35;18.80;99.90
1578;DHT22;57623;53.608;10.004;2023-06-10T08:01:03;18.90;99.90
1578;DHT22;57623;53.608;10.004;2023-06-10T08:03:31;18.90;99.90
1578;DHT22;57623;53.608;10.004;2023-06-10T08:06:00;18.90;99.90
1578;DHT22;57623;53.608;10.004;2023-06-10T08:08:28;19.00;99.90
1578;DHT22;57623;53.608;10.004;2023-06-10T08:10:55;19.10;99.90
1578;DHT22;57623;53.608;10.004;2023-06-10T08:13:23;19.20;99.90
1578;DHT22;57623;53.608;10.004;2023-06-10T08:15:53;19.20;99.90
1578;DHT22;57623;53.608;10.004;2023-06-10T08:18:21;19.30;99.90
1578;DHT22;57623;53.608;10.004;2023-06-10T08:20:49;19.40;99.90
1578;DHT22;57623;53.608;10.004;2023-06-10T08:23:17;19.50;99.90
1578;DHT22;57623;53.608;10.004;2023-06-10T08:25:46;19.60;99.90
1578;DHT22;57623;53.608;10.004;2023-06-10T08:28:14;19.60;99.90
1578;DHT22;57623;53.608;10.004;2023-06-10T08:30:42;19.70;99.90
1578;DHT22;57623;53.608;10.004;2023-06-10T08:33:12;19.90;99.90
1578;DHT22;57623;53.608;10.004;2023-06-10T08:35:40;19.90;99.90
1578;DHT22;57623;53.608;10.004;2023-06-10T08:38:08;20.00;99.90
1578;DHT22;57623;53.608;10.004;2023-06-10T08:40:36;20.10;99.90
1578;DHT22;57623;53.608;10.004;2023-06-10T08:43:06;20.10;99.90
1578;DHT22;57623;53.608;10.004;2023-06-10T08:45:36;20.20;99.90
1578;DHT22;57623;53.608;10.004;2023-06-10T08:48:05;20.30;99.90
1578;DHT22;57623;53.608;10.004;2023-06-10T08:50:36;20.40;99.90
1578;DHT22;57623;53.608;10.004;2023-06-10T08:53:05;20.50;99.90
1578;DHT22;57623;53.608;10.004;2023-06-10T08:55:36;20.60;99.90
1578;DHT22;57623;53.608;10.004;2023-06-10T08:58:05;20.60;99.90
1578;DHT22;57623;53.608;10.004;2023-06-10T09:00:34;20.70;99.90
1578;DHT22;57623;53.608;10.004;2023-06-10T09:03:05;20.80;99.90
1578;DHT22;57623;53.608;10.004;2023-06-10T09:05:37;20.80;99.90
1578;DHT22;57623;53.608;10.004;2023-06-10T09:08:06;20.80;99.90
1578;DHT22;57623;53.608;10.004;2023-06-10T09:10:35;20.90;99.90
1578;DHT22;57623;53.608;10.004;2023-06-10T09:13:03;21.00;99.90
1578;DHT22;57623;53.608;10.004;2023-06-10T09:15:31;21.10;99.90
1578;DHT22;57623;53.608;10.004;2023-06-10T09:17:59;21.20;99.90
1578;DHT22;57623;53.608;10.004;2023-06-10T09:20:27;21.30;99.90
1578;DHT22;57623;53.608;10.004;2023-06-10T09:22:56;21.40;99.90
1578;DHT22;57623;53.608;10.004;2023-06-10T09:25:34;21.50;99.90
1578;DHT22;57623;53.608;10.004;2023-06-10T09:28:04;21.60;99.90
1578;DHT22;57623;53.608;10.004;2023-06-10T09:30:33;21.70;99.90
1578;DHT22;57623;53.608;10.004;2023-06-10T09:33:03;21.80;99.90
1578;DHT22;57623;53.608;10.004;2023-06-10T09:35:32;21.80;99.90
1578;DHT22;57623;53.608;10.004;2023-06-10T09:38:01;21.90;99.90
1578;DHT22;57623;53.608;10.004;2023-06-10T09:40:29;22.00;99.90
1578;DHT22;57623;53.608;10.004;2023-06-10T09:42:59;22.10;99.90
1578;DHT22;57623;53.608;10.004;2023-06-10T09:45:30;22.10;99.90
1578;DHT22;57623;53.608;10.004;2023-06-10T09:47:59;22.10;99.90
1578;DHT22;57623;53.608;10.004;2023-06-10T09:50:27;22.30;99.90
1578;DHT22;57623;53.608;10.004;2023-06-10T09:52:55;22.30;99.90
1578;DHT22;57623;53.608;10.004;2023-06-10T09:55:25;22.40;99.90
1578;DHT22;57623;53.608;10.004;2023-06-10T09:57:53;22.50;99.90
1578;DHT22;57623;53.608;10.004;2023-06-10T10:00:22;22.60;99.90
1578;DHT22;57623;53.608;10.004;2023-06-10T10:02:53;22.70;99.90
1578;DHT22;57623;53.608;10.004;2023-06-10T10:05:22;22.70;99.90
1578;DHT22;57623;53.608;10.004;2023-06-10T10:07:51;22.80;99.90
1578;DHT22;57623;53.608;10.004;2023-06-10T10:10:20;22.90;99.90
1578;DHT22;57623;53.608;10.004;2023-06-10T10:12:54;23.00;99.90
1578;DHT22;57623;53.608;10.004;2023-06-10T10:15:25;23.10;99.90
1578;DHT22;57623;53.608;10.004;2023-06-10T10:18:03;23.10;99.90
1578;DHT22;57623;53.608;10.004;2023-06-10T10:20:37;23.20;99.90
1578;DHT22;57623;53.608;10.004;2023-06-10T10:23:10;23.40;99.90
1578;DHT22;57623;53.608;10.004;2023-06-10T10:25:40;23.40;99.90
1578;DHT22;57623;53.608;10.004;2023-06-10T10:28:12;23.40;99.90
1578;DHT22;57623;53.608;10.004;2023-06-10T10:30:41;23.50;99.90
1578;DHT22;57623;53.608;10.004;2023-06-10T10:33:12;23.50;99.90
1578;DHT22;57623;53.608;10.004;2023-06-10T10:35:44;23.60;99.90
1578;DHT22;57623;53.608;10.004;2023-06-10T10:38:13;23.70;99.90
1578;DHT22;57623;53.608;10.004;2023-06-10T10:40:42;23.80;99.90
1578;DHT22;57623;53.608;10.004;2023-06-10T10:43:13;23.90;99.90
1578;DHT22;57623;53.608;10.004;2023-06-10T10:45:42;24.00;99.90
1578;DHT22;57623;53.608;10.004;2023-06-10T10:48:10;24.00;99.90
1578;DHT22;57623;53.608;10.004;2023-06-10T10:50:39;24.20;99.90
1578;DHT22;57623;53.608;10.004;2023-06-10T10:53:08;24.20;99.90
1578;DHT22;57623;53.608;10.004;2023-06-10T10:55:36;24.30;99.90
1578;DHT22;57623;53.608;10.004;2023-06-10T10:58:05;24.40;99.90
1578;DHT22;57623;53.608;10.004;2023-06-10T11:00:36;24.50;99.90
1578;DHT22;57623;53.608;10.004;2023-06-10T11:03:06;24.50;99.90
1578;DHT22;57623;53.608;10.004;2023-06-10T11:05:39;24.60;99.90
1578;DHT22;57623;53.608;10.004;2023-06-10T11:08:08;24.80;99.90
1578;DHT22;57623;53.608;10.004;2023-06-10T11:10:37;24.90;99.90
1578;DHT22;57623;53.608;10.004;2023-06-10T11:13:07;24.90;99.90
1578;DHT22;57623;53.608;10.004;2023-06-10T11:15:43;25.00;99.90
1578;DHT22;57623;53.608;10.004;2023-06-10T11:18:21;25.10;99.90
1578;DHT22;57623;53.608;10.004;2023-06-10T11:21:00;25.20;99.90
1578;DHT22;57623;53.608;10.004;2023-06-10T11:23:41;25.30;99.90
1578;DHT22;57623;53.608;10.004;2023-06-10T11:26:19;25.40;99.90
1578;DHT22;57623;53.608;10.004;2023-06-10T11:29:07;25.50;99.90
1578;DHT22;57623;53.608;10.004;2023-06-10T11:31:45;25.60;99.90
1578;DHT22;57623;53.608;10.004;2023-06-10T11:34:21;25.70;99.90
1578;DHT22;57623;53.608;10.004;2023-06-10T11:36:51;25.90;99.90
1578;DHT22;57623;53.608;10.004;2023-06-10T11:39:20;26.00;99.90
1578;DHT22;57623;53.608;10.004;2023-06-10T11:41:50;26.10;99.90
1578;DHT22;57623;53.608;10.004;2023-06-10T11:44:19;26.20;99.90
1578;DHT22;57623;53.608;10.004;2023-06-10T11:46:49;26.30;99.90
1578;DHT22;57623;53.608;10.004;2023-06-10T11:49:20;26.40;99.90
1578;DHT22;57623;53.608;10.004;2023-06-10T11:51:48;26.40;99.90
1578;DHT22;57623;53.608;10.004;2023-06-10T11:54:19;26.50;99.90
1578;DHT22;57623;53.608;10.004;2023-06-10T11:56:48;26.60;99.90
1578;DHT22;57623;53.608;10.004;2023-06-10T11:59:16;26.60;99.90
1578;DHT22;57623;53.608;10.004;2023-06-10T12:01:49;26.60;99.90
1578;DHT22;57623;53.608;10.004;2023-06-10T12:04:17;26.70;99.90
1578;DHT22;57623;53.608;10.004;2023-06-10T12:06:46;26.80;99.90
1578;DHT22;57623;53.608;10.004;2023-06-10T12:09:20;26.90;99.90
1578;DHT22;57623;53.608;10.004;2023-06-10T12:11:56;27.00;99.90
1578;DHT22;57623;53.608;10.004;2023-06-10T12:14:50;27.10;99.90
1578;DHT22;57623;53.608;10.004;2023-06-10T12:17:22;27.20;99.90
1578;DHT22;57623;53.608;10.004;2023-06-10T12:19:52;27.30;99.90
1578;DHT22;57623;53.608;10.004;2023-06-10T12:22:20;27.30;99.90
1578;DHT22;57623;53.608;10.004;2023-06-10T12:25:00;27.40;99.90
1578;DHT22;57623;53.608;10.004;2023-06-10T12:27:30;27.50;99.90
1578;DHT22;57623;53.608;10.004;2023-06-10T12:29:59;27.60;99.90
1578;DHT22;57623;53.608;10.004;2023-06-10T12:32:38;27.70;99.90
1578;DHT22;57623;53.608;10.004;2023-06-10T12:35:08;27.80;99.90
1578;DHT22;57623;53.608;10.004;2023-06-10T12:37:38;27.90;99.90
1578;DHT22;57623;53.608;10.004;2023-06-10T12:40:10;28.00;99.90
1578;DHT22;57623;53.608;10.004;2023-06-10T12:42:38;28.10;99.90
1578;DHT22;57623;53.608;10.004;2023-06-10T12:45:07;28.20;99.90
1578;DHT22;57623;53.608;10.004;2023-06-10T12:47:39;28.30;99.90
1578;DHT22;57623;53.608;10.004;2023-06-10T12:50:08;28.30;99.90
1578;DHT22;57623;53.608;10.004;2023-06-10T12:52:38;28.40;99.90
1578;DHT22;57623;53.608;10.004;2023-06-10T12:55:08;28.50;99.90
1578;DHT22;57623;53.608;10.004;2023-06-10T12:57:37;28.70;99.90
1578;DHT22;57623;53.608;10.004;2023-06-10T13:00:06;28.80;99.90
1578;DHT22;57623;53.608;10.004;2023-06-10T13:02:35;28.90;99.90
1578;DHT22;57623;53.608;10.004;2023-06-10T13:05:05;29.10;99.90
1578;DHT22;57623;53.608;10.004;2023-06-10T13:07:33;29.20;99.90
1578;DHT22;57623;53.608;10.004;2023-06-10T13:10:02;29.30;99.90
1578;DHT22;57623;53.608;10.004;2023-06-10T13:12:33;29.40;99.90
1578;DHT22;57623;53.608;10.004;2023-06-10T13:15:14;29.60;99.90
1578;DHT22;57623;53.608;10.004;2023-06-10T13:17:42;29.70;99.90
1578;DHT22;57623;53.608;10.004;2023-06-10T13:20:12;29.80;99.90
1578;DHT22;57623;53.608;10.004;2023-06-10T13:22:40;29.90;99.90
1578;DHT22;57623;53.608;10.004;2023-06-10T13:25:09;30.00;99.90
1578;DHT22;57623;53.608;10.004;2023-06-10T13:27:38;30.10;99.90
1578;DHT22;57623;53.608;10.004;2023-06-10T13:30:07;30.20;99.90
1578;DHT22;57623;53.608;10.004;2023-06-10T13:32:36;30.20;99.90
1578;DHT22;57623;53.608;10.004;2023-06-10T13:35:05;30.20;99.90
1578;DHT22;57623;53.608;10.004;2023-06-10T13:37:35;30.20;99.90
1578;DHT22;57623;53.608;10.004;2023-06-10T13:40:05;30.20;99.90
1578;DHT22;57623;53.608;10.004;2023-06-10T13:42:34;30.20;99.90
1578;DHT22;57623;53.608;10.004;2023-06-10T13:45:03;30.30;99.90
1578;DHT22;57623;53.608;10.004;2023-06-10T13:47:31;30.40;99.90
1578;DHT22;57623;53.608;10.004;2023-06-10T13:49:59;30.50;99.90
1578;DHT22;57623;53.608;10.004;2023-06-10T13:52:27;30.50;97.80
1578;DHT22;57623;53.608;10.004;2023-06-10T13:54:57;30.60;99.90
1578;DHT22;57623;53.608;10.004;2023-06-10T13:57:25;30.70;99.90
1578;DHT22;57623;53.608;10.004;2023-06-10T13:59:53;30.80;97.40
1578;DHT22;57623;53.608;10.004;2023-06-10T14:02:22;30.80;96.90
1578;DHT22;57623;53.608;10.004;2023-06-10T14:04:51;30.80;99.30
1578;DHT22;57623;53.608;10.004;2023-06-10T14:07:19;30.90;97.30
1578;DHT22;57623;53.608;10.004;2023-06-10T14:09:47;31.00;98.30
1578;DHT22;57623;53.608;10.004;2023-06-10T14:12:16;31.10;95.90
1578;DHT22;57623;53.608;10.004;2023-06-10T14:14:44;31.10;93.00
1578;DHT22;57623;53.608;10.004;2023-06-10T14:17:13;31.00;93.20
1578;DHT22;57623;53.608;10.004;2023-06-10T14:19:41;31.00;95.40
1578;DHT22;57623;53.608;10.004;2023-06-10T14:22:09;31.00;95.00
1578;DHT22;57623;53.608;10.004;2023-06-10T14:24:37;31.00;92.40
1578;DHT22;57623;53.608;10.004;2023-06-10T14:27:06;31.00;92.30
1578;DHT22;57623;53.608;10.004;2023-06-10T14:29:35;31.00;91.70
1578;DHT22;57623;53.608;10.004;2023-06-10T14:32:04;31.10;91.70
1578;DHT22;57623;53.608;10.004;2023-06-10T14:34:35;31.10;92.80
1578;DHT22;57623;53.608;10.004;2023-06-10T14:37:03;31.20;92.90
1578;DHT22;57623;53.608;10.004;2023-06-10T14:39:34;31.30;89.20
1578;DHT22;57623;53.608;10.004;2023-06-10T14:42:03;31.20;91.40
1578;DHT22;57623;53.608;10.004;2023-06-10T14:44:31;31.10;89.80
1578;DHT22;57623;53.608;10.004;2023-06-10T14:47:01;31.30;91.40
1578;DHT22;57623;53.608;10.004;2023-06-10T14:49:29;31.30;88.90
1578;DHT22;57623;53.608;10.004;2023-06-10T14:51:57;31.50;89.40
1578;DHT22;57623;53.608;10.004;2023-06-10T14:54:25;31.50;90.20
1578;DHT22;57623;53.608;10.004;2023-06-10T14:56:54;31.60;87.50
1578;DHT22;57623;53.608;10.004;2023-06-10T14:59:22;31.50;81.60
1578;DHT22;57623;53.608;10.004;2023-06-10T15:01:52;31.50;90.60
1578;DHT22;57623;53.608;10.004;2023-06-10T15:04:22;31.50;81.30
1578;DHT22;57623;53.608;10.004;2023-06-10T15:06:50;31.40;82.20
1578;DHT22;57623;53.608;10.004;2023-06-10T15:09:18;31.30;80.70
1578;DHT22;57623;53.608;10.004;2023-06-10T15:11:47;31.30;84.80
1578;DHT22;57623;53.608;10.004;2023-06-10T15:14:15;31.40;83.90
1578;DHT22;57623;53.608;10.004;2023-06-10T15:16:43;31.40;79.50
1578;DHT22;57623;53.608;10.004;2023-06-10T15:19:11;31.40;77.70
1578;DHT22;57623;53.608;10.004;2023-06-10T15:21:40;31.30;79.50
1578;DHT22;57623;53.608;10.004;2023-06-10T15:24:09;31.20;76.80
1578;DHT22;57623;53.608;10.004;2023-06-10T15:26:37;31.20;80.40
1578;DHT22;57623;53.608;10.004;2023-06-10T15:29:05;31.30;78.10
1578;DHT22;57623;53.608;10.004;2023-06-10T15:31:36;31.10;77.80
1578;DHT22;57623;53.608;10.004;2023-06-10T15:34:04;31.10;78.70
1578;DHT22;57623;53.608;10.004;2023-06-10T15:36:33;31.00;80.20
1578;DHT22;57623;53.608;10.004;2023-06-10T15:39:05;30.90;78.00
1578;DHT22;57623;53.608;10.004;2023-06-10T15:41:34;30.80;78.40